sensor_id;sensor_type;location;lat;lon;timestamp;pressure;altitude;pressure_sealevel;temperature;humidity
69971;BME280;57301;50.328;8.542;2022-08-11T00:00:19;99064.00;;;14.42;63.16
69971;BME280;57301;50.328;8.542;2022-08-11T00:02:50;99066.56;;;14.43;63.24
69971;BME280;57301;50.328;8.542;2022-08-11T00:05:19;99060.13;;;14.36;63.42
69971;BME280;57301;50.328;8.542;2022-08-11T00:07:49;99064.66;;;14.28;64.03
69971;BME280;57301;50.328;8.542;2022-08-11T00:10:22;99068.53;;;14.25;64.24
69971;BME280;57301;50.328;8.542;2022-08-11T00:15:22;99063.75;;;14.11;64.53
69971;BME280;57301;50.328;8.542;2022-08-11T00:17:56;99063.91;;;14.01;64.52
69971;BME280;57301;50.328;8.542;2022-08-11T00:20:30;99064.19;;;13.90;64.85
69971;BME280;57301;50.328;8.542;2022-08-11T00:23:05;99061.31;;;13.83;65.03
69971;BME280;57301;50.328;8.542;2022-08-11T00:25:37;99066.47;;;13.77;65.49
69971;BME280;57301;50.328;8.542;2022-08-11T00:28:27;99071.19;;;13.83;65.22
69971;BME280;57301;50.328;8.542;2022-08-11T00:30:55;99077.50;;;13.74;65.97
69971;BME280;57301;50.328;8.542;2022-08-11T00:33:32;99084.66;;;13.65;65.93
69971;BME280;57301;50.328;8.542;2022-08-11T00:36:13;99077.78;;;13.62;66.04
69971;BME280;57301;50.328;8.542;2022-08-11T00:38:42;99080.78;;;13.59;66.26
69971;BME280;57301;50.328;8.542;2022-08-11T00:44:18;99070.50;;;13.47;66.26
69971;BME280;57301;50.328;8.542;2022-08-11T00:55:38;99077.09;;;13.34;66.92
69971;BME280;57301;50.328;8.542;2022-08-11T00:58:47;99072.22;;;13.30;67.26
69971;BME280;57301;50.328;8.542;2022-08-11T01:19:31;99089.31;;;12.75;69.85
69971;BME280;57301;50.328;8.542;2022-08-11T01:28:54;99083.94;;;12.93;68.85
69971;BME280;57301;50.328;8.542;2022-08-11T01:40:17;99090.06;;;12.50;70.17
69971;BME280;57301;50.328;8.542;2022-08-11T01:46:30;99091.22;;;12.47;70.49
69971;BME280;57301;50.328;8.542;2022-08-11T01:49:26;99089.81;;;12.43;70.86
69971;BME280;57301;50.328;8.542;2022-08-11T01:52:25;99087.47;;;12.40;70.81
69971;BME280;57301;50.328;8.542;2022-08-11T01:55:17;99087.78;;;12.27;71.42
69971;BME280;57301;50.328;8.542;2022-08-11T01:58:00;99091.41;;;12.36;71.70
69971;BME280;57301;50.328;8.542;2022-08-11T02:00:44;99095.38;;;12.32;71.27
69971;BME280;57301;50.328;8.542;2022-08-11T02:03:24;99097.38;;;12.30;71.56
69971;BME280;57301;50.328;8.542;2022-08-11T02:06:52;99094.69;;;12.30;71.04
69971;BME280;57301;50.328;8.542;2022-08-11T02:09:44;99092.78;;;12.22;71.35
69971;BME280;57301;50.328;8.542;2022-08-11T02:15:37;99095.34;;;12.14;71.20
69971;BME280;57301;50.328;8.542;2022-08-11T02:20:34;99092.41;;;12.07;71.17
69971;BME280;57301;50.328;8.542;2022-08-11T02:23:55;99092.47;;;11.98;71.33
69971;BME280;57301;50.328;8.542;2022-08-11T02:26:41;99100.41;;;11.80;72.52
69971;BME280;57301;50.328;8.542;2022-08-11T02:29:18;99100.84;;;11.66;73.77
69971;BME280;57301;50.328;8.542;2022-08-11T02:35:13;99094.34;;;11.88;72.87
69971;BME280;57301;50.328;8.542;2022-08-11T02:37:49;99095.19;;;11.88;72.57
69971;BME280;57301;50.328;8.542;2022-08-11T02:43:10;99098.44;;;11.82;73.01
69971;BME280;57301;50.328;8.542;2022-08-11T02:45:49;99102.34;;;11.78;72.60
69971;BME280;57301;50.328;8.542;2022-08-11T02:53:45;99099.88;;;11.67;72.79
69971;BME280;57301;50.328;8.542;2022-08-11T02:56:45;99094.56;;;11.67;73.04
69971;BME280;57301;50.328;8.542;2022-08-11T02:59:36;99101.16;;;11.63;72.88
69971;BME280;57301;50.328;8.542;2022-08-11T03:04:58;99101.63;;;11.48;73.99
69971;BME280;57301;50.328;8.542;2022-08-11T03:07:39;99102.47;;;11.39;74.07
69971;BME280;57301;50.328;8.542;2022-08-11T03:13:13;99088.03;;;11.32;74.60
69971;BME280;57301;50.328;8.542;2022-08-11T03:22:08;99093.25;;;11.24;75.35
69971;BME280;57301;50.328;8.542;2022-08-11T03:30:04;99085.66;;;11.19;74.81
69971;BME280;57301;50.328;8.542;2022-08-11T03:32:40;99093.25;;;11.24;74.90
69971;BME280;57301;50.328;8.542;2022-08-11T03:35:09;99085.66;;;11.19;74.29
69971;BME280;57301;50.328;8.542;2022-08-11T03:37:59;99089.91;;;11.12;74.54
69971;BME280;57301;50.328;8.542;2022-08-11T03:40:51;99092.72;;;11.01;75.39
69971;BME280;57301;50.328;8.542;2022-08-11T03:44:06;99095.25;;;10.93;75.69
69971;BME280;57301;50.328;8.542;2022-08-11T03:47:04;99088.19;;;10.92;75.86
69971;BME280;57301;50.328;8.542;2022-08-11T03:53:04;99095.50;;;10.80;75.88
69971;BME280;57301;50.328;8.542;2022-08-11T04:05:16;99093.13;;;10.67;77.15
69971;BME280;57301;50.328;8.542;2022-08-11T04:16:04;99101.69;;;10.71;76.82
69971;BME280;57301;50.328;8.542;2022-08-11T04:24:13;99097.34;;;10.70;76.82
69971;BME280;57301;50.328;8.542;2022-08-11T04:55:52;99105.91;;;11.12;75.24
69971;BME280;57301;50.328;8.542;2022-08-11T04:58:57;99103.50;;;11.19;75.48
69971;BME280;57301;50.328;8.542;2022-08-11T05:08:39;99107.13;;;11.37;75.98
69971;BME280;57301;50.328;8.542;2022-08-11T05:11:27;99116.78;;;11.57;75.22
69971;BME280;57301;50.328;8.542;2022-08-11T05:14:26;99119.53;;;11.75;74.88
69971;BME280;57301;50.328;8.542;2022-08-11T05:17:15;99123.03;;;11.76;74.24
69971;BME280;57301;50.328;8.542;2022-08-11T05:20:09;99127.16;;;12.07;74.20
69971;BME280;57301;50.328;8.542;2022-08-11T05:22:58;99123.16;;;12.21;72.63
69971;BME280;57301;50.328;8.542;2022-08-11T05:25:46;99130.25;;;12.40;73.58
69971;BME280;57301;50.328;8.542;2022-08-11T05:29:00;99121.44;;;13.55;69.80
69971;BME280;57301;50.328;8.542;2022-08-11T05:31:55;99122.19;;;14.25;67.31
69971;BME280;57301;50.328;8.542;2022-08-11T05:34:45;99125.72;;;14.42;66.92
69971;BME280;57301;50.328;8.542;2022-08-11T05:42:56;99123.47;;;19.25;52.56
69971;BME280;57301;50.328;8.542;2022-08-11T05:45:42;99135.81;;;21.07;47.26
69971;BME280;57301;50.328;8.542;2022-08-11T05:48:34;99125.59;;;22.15;44.35
69971;BME280;57301;50.328;8.542;2022-08-11T05:51:19;99133.69;;;22.93;42.26
69971;BME280;57301;50.328;8.542;2022-08-11T05:54:22;99132.81;;;24.06;40.13
69971;BME280;57301;50.328;8.542;2022-08-11T05:57:28;99127.78;;;24.64;37.53
69971;BME280;57301;50.328;8.542;2022-08-11T06:00:15;99127.97;;;25.41;36.54
69971;BME280;57301;50.328;8.542;2022-08-11T06:02:43;99130.06;;;25.93;35.24
69971;BME280;57301;50.328;8.542;2022-08-11T06:05:15;99132.41;;;25.54;35.95
69971;BME280;57301;50.328;8.542;2022-08-11T06:07:44;99126.97;;;26.01;34.57
69971;BME280;57301;50.328;8.542;2022-08-11T06:10:27;99127.53;;;26.38;32.75
69971;BME280;57301;50.328;8.542;2022-08-11T06:12:56;99121.03;;;26.79;32.51
69971;BME280;57301;50.328;8.542;2022-08-11T06:15:24;99129.75;;;26.65;33.25
69971;BME280;57301;50.328;8.542;2022-08-11T06:17:51;99121.28;;;27.52;30.61
69971;BME280;57301;50.328;8.542;2022-08-11T06:20:19;99118.31;;;27.87;31.40
69971;BME280;57301;50.328;8.542;2022-08-11T06:22:55;99113.41;;;27.10;31.38
69971;BME280;57301;50.328;8.542;2022-08-11T06:25:29;99116.88;;;28.23;29.89
69971;BME280;57301;50.328;8.542;2022-08-11T06:27:57;99123.00;;;28.47;30.64
69971;BME280;57301;50.328;8.542;2022-08-11T06:30:50;99119.72;;;29.48;29.41
69971;BME280;57301;50.328;8.542;2022-08-11T06:33:33;99121.28;;;29.39;29.10
69971;BME280;57301;50.328;8.542;2022-08-11T06:36:09;99120.50;;;28.07;30.07
69971;BME280;57301;50.328;8.542;2022-08-11T06:41:25;99120.50;;;29.43;30.04
69971;BME280;57301;50.328;8.542;2022-08-11T06:46:39;99118.69;;;30.91;27.84
69971;BME280;57301;50.328;8.542;2022-08-11T06:49:07;99105.75;;;30.97;26.11
69971;BME280;57301;50.328;8.542;2022-08-11T06:52:03;99118.59;;;30.13;27.98
69971;BME280;57301;50.328;8.542;2022-08-11T06:54:39;99112.91;;;30.93;26.45
69971;BME280;57301;50.328;8.542;2022-08-11T06:57:11;99111.91;;;31.24;26.97
69971;BME280;57301;50.328;8.542;2022-08-11T07:00:01;99114.88;;;30.35;26.94
69971;BME280;57301;50.328;8.542;2022-08-11T07:05:47;99112.47;;;31.32;25.59
69971;BME280;57301;50.328;8.542;2022-08-11T07:14:51;99107.22;;;30.47;24.87
69971;BME280;57301;50.328;8.542;2022-08-11T07:17:45;99105.81;;;32.09;23.86
69971;BME280;57301;50.328;8.542;2022-08-11T07:20:16;99108.59;;;32.89;22.24
69971;BME280;57301;50.328;8.542;2022-08-11T07:23:03;99104.81;;;33.87;21.52
69971;BME280;57301;50.328;8.542;2022-08-11T07:25:52;99105.94;;;34.44;21.47
69971;BME280;57301;50.328;8.542;2022-08-11T07:28:44;99098.47;;;34.40;21.77
69971;BME280;57301;50.328;8.542;2022-08-11T07:36:57;99105.66;;;34.65;21.88
69971;BME280;57301;50.328;8.542;2022-08-11T07:39:27;99099.31;;;34.83;21.64
69971;BME280;57301;50.328;8.542;2022-08-11T07:41:58;99100.50;;;35.01;20.96
69971;BME280;57301;50.328;8.542;2022-08-11T07:44:27;99093.72;;;34.88;21.72
69971;BME280;57301;50.328;8.542;2022-08-11T07:47:01;99090.91;;;34.93;21.45
69971;BME280;57301;50.328;8.542;2022-08-11T07:49:47;99091.72;;;35.13;20.87
69971;BME280;57301;50.328;8.542;2022-08-11T07:52:34;99087.97;;;35.04;20.37
69971;BME280;57301;50.328;8.542;2022-08-11T07:57:35;99088.50;;;35.24;20.80
69971;BME280;57301;50.328;8.542;2022-08-11T08:00:43;99085.44;;;35.07;21.13
69971;BME280;57301;50.328;8.542;2022-08-11T08:03:47;99082.50;;;35.17;20.39
69971;BME280;57301;50.328;8.542;2022-08-11T08:06:32;99078.50;;;35.23;20.93
69971;BME280;57301;50.328;8.542;2022-08-11T08:09:19;99077.59;;;35.47;20.57
69971;BME280;57301;50.328;8.542;2022-08-11T08:12:06;99074.69;;;35.71;20.67
69971;BME280;57301;50.328;8.542;2022-08-11T08:14:53;99077.78;;;35.83;20.33
69971;BME280;57301;50.328;8.542;2022-08-11T08:17:43;99077.53;;;35.66;20.62
69971;BME280;57301;50.328;8.542;2022-08-11T08:20:48;99076.47;;;35.48;19.93
69971;BME280;57301;50.328;8.542;2022-08-11T08:23:17;99075.91;;;35.65;20.12
69971;BME280;57301;50.328;8.542;2022-08-11T08:25:59;99070.47;;;35.22;20.39
69971;BME280;57301;50.328;8.542;2022-08-11T08:28:27;99087.22;;;34.98;20.80
69971;BME280;57301;50.328;8.542;2022-08-11T08:30:58;99073.47;;;34.69;20.79
69971;BME280;57301;50.328;8.542;2022-08-11T08:33:28;99075.94;;;34.70;21.00
69971;BME280;57301;50.328;8.542;2022-08-11T08:35:58;99077.06;;;33.68;21.32
69971;BME280;57301;50.328;8.542;2022-08-11T08:38:49;99069.69;;;32.05;23.51
69971;BME280;57301;50.328;8.542;2022-08-11T08:41:22;99075.44;;;32.14;22.74
69971;BME280;57301;50.328;8.542;2022-08-11T08:43:52;99072.22;;;31.36;23.40
69971;BME280;57301;50.328;8.542;2022-08-11T08:46:26;99076.78;;;30.79;24.40
69971;BME280;57301;50.328;8.542;2022-08-11T08:48:59;99074.13;;;31.66;24.26
69971;BME280;57301;50.328;8.542;2022-08-11T08:51:27;99079.28;;;32.33;23.48
69971;BME280;57301;50.328;8.542;2022-08-11T08:54:23;99074.59;;;32.88;23.09
69971;BME280;57301;50.328;8.542;2022-08-11T08:56:54;99081.38;;;32.62;23.07
69971;BME280;57301;50.328;8.542;2022-08-11T08:59:23;99081.84;;;32.04;23.52
69971;BME280;57301;50.328;8.542;2022-08-11T09:02:00;99073.44;;;32.40;23.19
69971;BME280;57301;50.328;8.542;2022-08-11T09:04:28;99077.91;;;32.36;23.45
69971;BME280;57301;50.328;8.542;2022-08-11T09:06:59;99072.78;;;32.63;23.34
69971;BME280;57301;50.328;8.542;2022-08-11T09:09:29;99072.75;;;31.89;24.09
69971;BME280;57301;50.328;8.542;2022-08-11T09:11:57;99073.88;;;31.93;24.08
69971;BME280;57301;50.328;8.542;2022-08-11T09:14:26;99069.94;;;32.09;23.75
69971;BME280;57301;50.328;8.542;2022-08-11T09:17:17;99070.53;;;31.86;24.24
69971;BME280;57301;50.328;8.542;2022-08-11T09:19:45;99065.00;;;32.01;23.67
69971;BME280;57301;50.328;8.542;2022-08-11T09:22:21;99063.91;;;31.10;23.68
69971;BME280;57301;50.328;8.542;2022-08-11T09:25:07;99062.94;;;29.96;24.57
69971;BME280;57301;50.328;8.542;2022-08-11T09:27:53;99051.88;;;29.91;25.09
69971;BME280;57301;50.328;8.542;2022-08-11T09:30:23;99051.53;;;30.24;25.37
69971;BME280;57301;50.328;8.542;2022-08-11T09:32:55;99045.31;;;30.55;24.74
69971;BME280;57301;50.328;8.542;2022-08-11T09:35:27;99049.84;;;31.17;25.58
69971;BME280;57301;50.328;8.542;2022-08-11T09:37:56;99036.63;;;31.65;22.99
69971;BME280;57301;50.328;8.542;2022-08-11T09:40:47;99046.69;;;32.30;22.79
69971;BME280;57301;50.328;8.542;2022-08-11T09:43:22;99047.63;;;30.88;23.26
69971;BME280;57301;50.328;8.542;2022-08-11T09:46:09;99048.00;;;30.34;25.23
69971;BME280;57301;50.328;8.542;2022-08-11T09:48:41;99047.09;;;29.76;25.53
69971;BME280;57301;50.328;8.542;2022-08-11T09:51:09;99047.03;;;29.61;25.81
69971;BME280;57301;50.328;8.542;2022-08-11T09:53:38;99045.19;;;29.72;25.79
69971;BME280;57301;50.328;8.542;2022-08-11T09:56:11;99038.56;;;29.73;25.12
69971;BME280;57301;50.328;8.542;2022-08-11T09:58:57;99045.59;;;30.53;23.84
69971;BME280;57301;50.328;8.542;2022-08-11T10:01:29;99045.34;;;30.02;24.37
69971;BME280;57301;50.328;8.542;2022-08-11T10:04:08;99043.41;;;29.97;24.65
69971;BME280;57301;50.328;8.542;2022-08-11T10:06:38;99024.09;;;30.55;23.88
69971;BME280;57301;50.328;8.542;2022-08-11T10:09:23;99045.22;;;31.38;22.88
69971;BME280;57301;50.328;8.542;2022-08-11T10:11:55;99031.72;;;31.26;22.44
69971;BME280;57301;50.328;8.542;2022-08-11T10:14:25;99038.66;;;30.35;23.96
69971;BME280;57301;50.328;8.542;2022-08-11T10:17:12;99046.06;;;29.50;24.15
69971;BME280;57301;50.328;8.542;2022-08-11T10:19:41;99036.81;;;30.04;23.71
69971;BME280;57301;50.328;8.542;2022-08-11T10:22:08;99039.53;;;30.56;23.35
69971;BME280;57301;50.328;8.542;2022-08-11T10:24:58;99035.69;;;30.62;22.94
69971;BME280;57301;50.328;8.542;2022-08-11T10:27:46;99023.72;;;31.45;22.61
69971;BME280;57301;50.328;8.542;2022-08-11T10:30:45;99028.06;;;31.76;21.47
69971;BME280;57301;50.328;8.542;2022-08-11T10:33:32;99028.06;;;32.61;20.98
69971;BME280;57301;50.328;8.542;2022-08-11T10:36:38;99030.38;;;33.62;20.66
69971;BME280;57301;50.328;8.542;2022-08-11T10:39:12;99018.50;;;34.57;19.67
69971;BME280;57301;50.328;8.542;2022-08-11T10:41:45;99030.91;;;33.88;20.04
69971;BME280;57301;50.328;8.542;2022-08-11T10:44:39;99015.97;;;33.65;20.01
69971;BME280;57301;50.328;8.542;2022-08-11T10:47:06;99021.56;;;32.81;20.61
69971;BME280;57301;50.328;8.542;2022-08-11T10:49:52;99010.47;;;32.97;20.43
69971;BME280;57301;50.328;8.542;2022-08-11T10:52:38;99006.13;;;32.80;21.28
69971;BME280;57301;50.328;8.542;2022-08-11T10:55:24;98996.88;;;34.35;19.55
69971;BME280;57301;50.328;8.542;2022-08-11T10:58:11;99001.13;;;34.52;19.81
69971;BME280;57301;50.328;8.542;2022-08-11T11:00:57;98998.88;;;33.82;19.58
69971;BME280;57301;50.328;8.542;2022-08-11T11:03:29;98990.19;;;32.67;20.55
69971;BME280;57301;50.328;8.542;2022-08-11T11:06:03;98989.53;;;33.20;20.59
69971;BME280;57301;50.328;8.542;2022-08-11T11:09:01;98986.34;;;33.02;20.01
69971;BME280;57301;50.328;8.542;2022-08-11T11:11:34;98981.69;;;33.61;20.02
69971;BME280;57301;50.328;8.542;2022-08-11T11:14:22;98982.16;;;33.10;20.30
69971;BME280;57301;50.328;8.542;2022-08-11T11:17:31;98983.59;;;32.63;21.35
69971;BME280;57301;50.328;8.542;2022-08-11T11:20:22;98982.09;;;32.76;20.87
69971;BME280;57301;50.328;8.542;2022-08-11T11:23:07;98976.34;;;34.17;20.43
69971;BME280;57301;50.328;8.542;2022-08-11T11:37:21;98954.03;;;35.36;18.54
69971;BME280;57301;50.328;8.542;2022-08-11T11:39:48;98943.84;;;35.64;19.18
69971;BME280;57301;50.328;8.542;2022-08-11T11:42:16;98951.25;;;35.55;19.07
69971;BME280;57301;50.328;8.542;2022-08-11T11:44:44;98938.25;;;35.36;18.96
69971;BME280;57301;50.328;8.542;2022-08-11T11:47:12;98944.19;;;34.40;20.16
69971;BME280;57301;50.328;8.542;2022-08-11T11:49:43;98943.50;;;32.16;21.69
69971;BME280;57301;50.328;8.542;2022-08-11T11:52:15;98933.16;;;31.88;22.49
69971;BME280;57301;50.328;8.542;2022-08-11T11:54:49;98938.41;;;32.49;22.55
69971;BME280;57301;50.328;8.542;2022-08-11T11:57:19;98935.72;;;32.33;21.39
69971;BME280;57301;50.328;8.542;2022-08-11T12:00:09;98934.63;;;32.29;21.66
69971;BME280;57301;50.328;8.542;2022-08-11T12:03:02;98923.41;;;31.25;22.89
69971;BME280;57301;50.328;8.542;2022-08-11T12:05:32;98919.41;;;31.72;21.44
69971;BME280;57301;50.328;8.542;2022-08-11T12:08:00;98919.22;;;32.18;20.90
69971;BME280;57301;50.328;8.542;2022-08-11T12:11:02;98923.16;;;32.02;21.47
69971;BME280;57301;50.328;8.542;2022-08-11T12:13:51;98910.41;;;32.60;21.79
69971;BME280;57301;50.328;8.542;2022-08-11T12:16:19;98908.75;;;32.99;21.23
69971;BME280;57301;50.328;8.542;2022-08-11T12:19:04;98904.13;;;33.18;20.89
69971;BME280;57301;50.328;8.542;2022-08-11T12:21:33;98898.59;;;33.18;20.89
69971;BME280;57301;50.328;8.542;2022-08-11T12:24:01;98903.84;;;33.49;20.53
69971;BME280;57301;50.328;8.542;2022-08-11T12:26:48;98902.38;;;32.64;20.93
69971;BME280;57301;50.328;8.542;2022-08-11T12:29:34;98915.94;;;32.60;21.43
69971;BME280;57301;50.328;8.542;2022-08-11T12:32:07;98908.84;;;32.83;20.86
69971;BME280;57301;50.328;8.542;2022-08-11T12:34:33;98895.31;;;33.16;21.02
69971;BME280;57301;50.328;8.542;2022-08-11T12:37:02;98888.59;;;32.59;21.27
69971;BME280;57301;50.328;8.542;2022-08-11T12:39:35;98883.91;;;32.94;20.90
69971;BME280;57301;50.328;8.542;2022-08-11T12:42:41;98893.34;;;32.04;20.99
69971;BME280;57301;50.328;8.542;2022-08-11T12:45:35;98886.47;;;32.01;21.05
69971;BME280;57301;50.328;8.542;2022-08-11T12:48:14;98886.31;;;31.72;21.20
69971;BME280;57301;50.328;8.542;2022-08-11T12:51:23;98881.09;;;32.65;19.95
69971;BME280;57301;50.328;8.542;2022-08-11T12:57:28;98877.72;;;34.40;18.89
69971;BME280;57301;50.328;8.542;2022-08-11T13:00:16;98876.97;;;35.05;18.72
69971;BME280;57301;50.328;8.542;2022-08-11T13:03:03;98854.03;;;34.67;19.03
69971;BME280;57301;50.328;8.542;2022-08-11T13:05:52;98862.66;;;36.22;16.95
69971;BME280;57301;50.328;8.542;2022-08-11T13:08:22;98854.19;;;36.27;16.82
69971;BME280;57301;50.328;8.542;2022-08-11T13:10:54;98844.69;;;36.64;16.83
69971;BME280;57301;50.328;8.542;2022-08-11T13:13:41;98848.19;;;36.33;16.91
69971;BME280;57301;50.328;8.542;2022-08-11T13:16:33;98850.31;;;36.50;16.89
69971;BME280;57301;50.328;8.542;2022-08-11T13:19:23;98851.09;;;37.18;15.90
69971;BME280;57301;50.328;8.542;2022-08-11T13:21:51;98838.28;;;38.57;15.24
69971;BME280;57301;50.328;8.542;2022-08-11T13:24:19;98832.34;;;39.70;14.23
69971;BME280;57301;50.328;8.542;2022-08-11T13:26:47;98831.78;;;39.85;14.11
69971;BME280;57301;50.328;8.542;2022-08-11T13:29:21;98823.53;;;37.96;14.48
69971;BME280;57301;50.328;8.542;2022-08-11T13:31:48;98830.41;;;35.48;16.98
69971;BME280;57301;50.328;8.542;2022-08-11T13:34:17;98832.09;;;35.72;16.83
69971;BME280;57301;50.328;8.542;2022-08-11T13:36:47;98834.06;;;35.58;16.97
69971;BME280;57301;50.328;8.542;2022-08-11T13:39:16;98826.31;;;35.82;16.24
69971;BME280;57301;50.328;8.542;2022-08-11T13:41:44;98826.03;;;36.20;16.39
69971;BME280;57301;50.328;8.542;2022-08-11T13:44:15;98828.19;;;35.87;16.45
69971;BME280;57301;50.328;8.542;2022-08-11T13:46:48;98817.59;;;36.25;16.01
69971;BME280;57301;50.328;8.542;2022-08-11T13:49:19;98817.56;;;37.63;15.12
69971;BME280;57301;50.328;8.542;2022-08-11T13:51:47;98815.53;;;38.38;14.92
69971;BME280;57301;50.328;8.542;2022-08-11T13:54:17;98810.91;;;39.23;14.34
69971;BME280;57301;50.328;8.542;2022-08-11T13:56:48;98812.84;;;40.12;14.10
69971;BME280;57301;50.328;8.542;2022-08-11T13:59:19;98815.56;;;40.20;13.64
69971;BME280;57301;50.328;8.542;2022-08-11T14:01:56;98817.03;;;40.39;13.61
69971;BME280;57301;50.328;8.542;2022-08-11T14:04:55;98794.31;;;40.07;13.66
69971;BME280;57301;50.328;8.542;2022-08-11T14:07:24;98798.22;;;40.15;14.60
69971;BME280;57301;50.328;8.542;2022-08-11T14:09:56;98797.72;;;40.34;13.47
69971;BME280;57301;50.328;8.542;2022-08-11T14:12:26;98787.63;;;39.19;14.17
69971;BME280;57301;50.328;8.542;2022-08-11T14:15:26;98787.19;;;40.31;13.42
69971;BME280;57301;50.328;8.542;2022-08-11T14:17:57;98781.25;;;40.53;13.00
69971;BME280;57301;50.328;8.542;2022-08-11T14:20:30;98771.28;;;40.43;13.25
69971;BME280;57301;50.328;8.542;2022-08-11T14:23:16;98775.31;;;38.48;14.82
69971;BME280;57301;50.328;8.542;2022-08-11T14:25:44;98770.44;;;38.18;14.68
69971;BME280;57301;50.328;8.542;2022-08-11T14:28:32;98767.78;;;38.57;14.60
69971;BME280;57301;50.328;8.542;2022-08-11T14:31:07;98764.38;;;38.08;15.38
69971;BME280;57301;50.328;8.542;2022-08-11T14:33:35;98762.03;;;37.67;15.67
69971;BME280;57301;50.328;8.542;2022-08-11T14:36:24;98768.13;;;36.80;16.87
69971;BME280;57301;50.328;8.542;2022-08-11T14:38:52;98771.97;;;34.71;17.90
69971;BME280;57301;50.328;8.542;2022-08-11T14:41:20;98772.41;;;33.51;19.22
69971;BME280;57301;50.328;8.542;2022-08-11T14:44:26;98759.16;;;33.29;19.12
69971;BME280;57301;50.328;8.542;2022-08-11T14:47:13;98751.97;;;33.28;18.96
69971;BME280;57301;50.328;8.542;2022-08-11T14:49:53;98742.31;;;33.26;18.24
69971;BME280;57301;50.328;8.542;2022-08-11T14:52:36;98752.41;;;33.40;19.33
69971;BME280;57301;50.328;8.542;2022-08-11T14:55:04;98754.19;;;33.26;18.89
69971;BME280;57301;50.328;8.542;2022-08-11T14:57:51;98749.81;;;33.01;19.26
69971;BME280;57301;50.328;8.542;2022-08-11T15:00:21;98750.16;;;32.66;19.91
69971;BME280;57301;50.328;8.542;2022-08-11T15:02:48;98748.03;;;32.86;19.88
69971;BME280;57301;50.328;8.542;2022-08-11T15:05:33;98745.31;;;31.84;20.24
69971;BME280;57301;50.328;8.542;2022-08-11T15:08:03;98747.69;;;31.56;20.83
69971;BME280;57301;50.328;8.542;2022-08-11T15:10:31;98741.19;;;31.37;21.16
69971;BME280;57301;50.328;8.542;2022-08-11T15:12:58;98739.44;;;31.51;21.57
69971;BME280;57301;50.328;8.542;2022-08-11T15:15:26;98730.69;;;31.89;21.08
69971;BME280;57301;50.328;8.542;2022-08-11T15:18:13;98728.41;;;32.30;20.77
69971;BME280;57301;50.328;8.542;2022-08-11T15:20:43;98725.38;;;32.60;20.60
69971;BME280;57301;50.328;8.542;2022-08-11T15:23:29;98729.19;;;32.65;20.11
69971;BME280;57301;50.328;8.542;2022-08-11T15:26:18;98722.53;;;32.66;20.21
69971;BME280;57301;50.328;8.542;2022-08-11T15:29:09;98723.09;;;32.68;20.28
69971;BME280;57301;50.328;8.542;2022-08-11T15:31:56;98722.34;;;31.99;20.53
69971;BME280;57301;50.328;8.542;2022-08-11T15:34:45;98717.44;;;31.86;20.60
69971;BME280;57301;50.328;8.542;2022-08-11T15:37:32;98709.13;;;31.51;21.32
69971;BME280;57301;50.328;8.542;2022-08-11T15:40:28;98702.19;;;31.54;21.22
69971;BME280;57301;50.328;8.542;2022-08-11T15:43:19;98712.00;;;31.80;21.13
69971;BME280;57301;50.328;8.542;2022-08-11T15:46:17;98716.91;;;31.83;20.75
69971;BME280;57301;50.328;8.542;2022-08-11T15:48:47;98712.16;;;31.50;20.46
69971;BME280;57301;50.328;8.542;2022-08-11T15:51:19;98707.50;;;31.45;21.03
69971;BME280;57301;50.328;8.542;2022-08-11T15:53:58;98710.38;;;31.20;21.11
69971;BME280;57301;50.328;8.542;2022-08-11T15:56:38;98694.53;;;31.46;21.29
69971;BME280;57301;50.328;8.542;2022-08-11T15:59:09;98687.28;;;31.55;21.81
69971;BME280;57301;50.328;8.542;2022-08-11T16:02:12;98698.91;;;31.52;21.56
69971;BME280;57301;50.328;8.542;2022-08-11T16:04:44;98700.53;;;30.98;21.58
69971;BME280;57301;50.328;8.542;2022-08-11T16:07:16;98696.50;;;30.65;22.33
69971;BME280;57301;50.328;8.542;2022-08-11T16:09:50;98689.06;;;30.61;22.61
69971;BME280;57301;50.328;8.542;2022-08-11T16:12:28;98687.44;;;30.49;22.18
69971;BME280;57301;50.328;8.542;2022-08-11T16:14:59;98683.56;;;30.61;22.41
69971;BME280;57301;50.328;8.542;2022-08-11T16:17:49;98688.31;;;30.35;22.64
69971;BME280;57301;50.328;8.542;2022-08-11T16:20:20;98679.50;;;30.38;22.92
69971;BME280;57301;50.328;8.542;2022-08-11T16:22:48;98688.06;;;30.16;22.57
69971;BME280;57301;50.328;8.542;2022-08-11T16:25:28;98689.72;;;30.27;22.91
69971;BME280;57301;50.328;8.542;2022-08-11T16:28:17;98680.59;;;30.32;22.40
69971;BME280;57301;50.328;8.542;2022-08-11T16:30:44;98682.28;;;30.22;22.39
69971;BME280;57301;50.328;8.542;2022-08-11T16:33:12;98676.75;;;30.07;22.80
69971;BME280;57301;50.328;8.542;2022-08-11T16:36:02;98673.75;;;30.04;22.91
69971;BME280;57301;50.328;8.542;2022-08-11T16:38:48;98677.59;;;30.18;22.79
69971;BME280;57301;50.328;8.542;2022-08-11T16:41:16;98674.03;;;30.12;22.51
69971;BME280;57301;50.328;8.542;2022-08-11T16:44:04;98670.44;;;29.91;22.77
69971;BME280;57301;50.328;8.542;2022-08-11T16:47:05;98668.53;;;29.97;22.44
69971;BME280;57301;50.328;8.542;2022-08-11T16:49:35;98664.13;;;29.91;22.29
69971;BME280;57301;50.328;8.542;2022-08-11T16:52:05;98667.13;;;29.69;22.72
69971;BME280;57301;50.328;8.542;2022-08-11T16:54:38;98666.31;;;29.53;22.75
69971;BME280;57301;50.328;8.542;2022-08-11T16:57:14;98658.31;;;29.57;22.69
69971;BME280;57301;50.328;8.542;2022-08-11T17:00:03;98661.59;;;29.43;22.94
69971;BME280;57301;50.328;8.542;2022-08-11T17:02:35;98662.41;;;29.44;23.54
69971;BME280;57301;50.328;8.542;2022-08-11T17:05:22;98658.84;;;29.43;22.82
69971;BME280;57301;50.328;8.542;2022-08-11T17:08:28;98665.97;;;29.34;23.66
69971;BME280;57301;50.328;8.542;2022-08-11T17:11:25;98665.97;;;29.34;23.22
69971;BME280;57301;50.328;8.542;2022-08-11T17:14:20;98660.22;;;29.41;23.81
69971;BME280;57301;50.328;8.542;2022-08-11T17:17:03;98655.00;;;29.34;23.55
69971;BME280;57301;50.328;8.542;2022-08-11T17:19:36;98658.84;;;29.43;23.27